ヤクーツク の空港の天気 - METARとTAF

ヤクーツク空港 ( UEEE / YKS ) - ロシア ヤクーツク
飛行場実況気象(Metar)
観測時間08/26 04:00 YAKT (08/25 19:00 UTC)
風向・風速北西 4m/s
視程10km以上
天気現象
なし
気温12℃
湿度88%
気圧1007hPa
METARUEEE 251900Z 32004MPS CAVOK 12/10 Q1007 R23L/09//60 NOSIG RMK QFE746
過去の天気等 Google飛行場航空写真 Wunderground天気予報

過去48時間のMETAR

飛行場予報(TAF)
発表時間: 8/26 02:00 YAKT (8/25 17:00 UTC)
予報対象時間: 26日3時 YAKT ~ 27日9時 YAKT
風向・風速西北西 5m/s
視程10km以上
全天の4割程度の積乱雲 雲底高度 910m
26日3時 YAKT ~ 26日9時 YAKT に一時的に
視程300m
天気現象
全天を覆う雲 鉛直視程 90m
TAF UEEE 251700Z 2518/2624 30005MPS 9999 SCT030CB
TEMPO 2518/2524 0300 FG VV003